St John, Virgin Islands
Current Conditions -  °F | °C
As of 3:05 PM on Thursday 23 Oct 2014 (Local Time) from TUPJ Reporting Station
Broken Clouds Broken Clouds  
Wind Chill: 88°   Ceiling: 2000
Heat Index: 98°   Visibility: 6mi
Dew Point: 75°   Wind: 10mph
Humidity: 66%   Direction: 140°SE
Pressure: 29.88"   Gusts: NA
Location:  18.3333°N, 64.7943°W
Report Text: TUPJ 231905Z 14009KT 9999 BKN020 31/24 Q1012 RMK A2989
Loading
Personal Weather Stations






























Interactive Weather Map New forecast layout! Learn more

10-Day Weather Forecast

Advertisements
Track Severe Weather on mobile